Time;durP1;ratioP1;P1;durP2;ratioP2;P2;SDS_P1;SDS_P2;PMS_P1;PMS_P2;Temp;Humidity;BMP_temperature;BMP_pressure;BME280_temperature;BME280_humidity;BME280_pressure;Samples;Min_cycle;Max_cycle;Signal;HPM_P1;HPM_P2
2022/05/30 00:01:26;;;;;;;22.60;21.20;;;;;;;-141.02;100.00;92644.28;5132960;28;20279;-74
2022/05/30 00:03:56;;;;;;;21.98;20.58;;;;;;;-141.02;100.00;92679.38;5132959;28;20201;-74
2022/05/30 00:06:25;;;;;;;21.92;20.63;;;;;;;-141.02;100.00;92663.78;5132695;28;20232;-74
2022/05/30 00:08:52;;;;;;;20.60;19.30;;;;;;;-141.02;100.00;92642.34;5132844;28;20197;-74
2022/05/30 00:11:19;;;;;;;21.60;20.30;;;;;;;-141.02;100.00;92640.41;5133142;27;20196;-73
2022/05/30 00:13:46;;;;;;;21.60;20.30;;;;;;;-141.02;100.00;92597.53;5133172;27;20193;-74
2022/05/30 00:16:16;;;;;;;21.40;20.00;;;;;;;-141.02;100.00;92562.50;5134056;27;20196;-74
2022/05/30 00:18:43;;;;;;;19.73;18.42;;;;;;;-141.02;100.00;92554.69;5137274;27;20199;-73
2022/05/30 00:21:12;;;;;;;20.88;19.50;;;;;;;-141.02;100.00;92525.47;5136912;27;20592;-73
2022/05/30 00:23:40;;;;;;;22.17;20.67;;;;;;;-141.02;100.00;92544.94;5136938;27;20235;-73
2022/05/30 00:26:09;;;;;;;21.95;20.45;;;;;;;-141.02;100.00;92507.94;5136794;27;20835;-73
2022/05/30 00:28:36;;;;;;;22.40;20.90;;;;;;;-141.02;100.00;92465.09;5136781;27;20242;-73
2022/05/30 00:31:04;;;;;;;20.90;19.50;;;;;;;-141.02;100.00;92482.63;5136721;27;20681;-74
2022/05/30 00:33:31;;;;;;;22.27;20.77;;;;;;;-141.02;100.00;92494.31;5136970;27;20196;-73
2022/05/30 00:35:58;;;;;;;22.58;21.08;;;;;;;-141.02;100.00;92453.41;5136991;27;20275;-73
2022/05/30 00:38:27;;;;;;;22.45;20.95;;;;;;;-141.02;100.00;92511.84;5136810;27;20315;-73
2022/05/30 00:40:54;;;;;;;22.67;21.17;;;;;;;-141.02;100.00;92498.19;5136825;27;20275;-73
2022/05/30 00:43:25;;;;;;;22.30;20.80;;;;;;;-141.02;100.00;92523.53;5136805;27;20200;-73
2022/05/30 00:45:52;;;;;;;22.27;20.77;;;;;;;-141.02;100.00;92517.69;5136433;27;20229;-73
2022/05/30 00:48:23;;;;;;;21.55;20.15;;;;;;;-141.02;100.00;92527.41;5136722;27;20232;-73
2022/05/30 00:50:52;;;;;;;22.10;20.60;;;;;;;-141.02;100.00;92550.78;5136654;27;20245;-73
2022/05/30 00:53:19;;;;;;;21.80;20.38;;;;;;;-141.02;100.00;92541.06;5136315;27;20574;-74
2022/05/30 00:55:49;;;;;;;22.40;20.90;;;;;;;-141.02;100.00;92535.22;5136568;27;20223;-73
2022/05/30 00:58:19;;;;;;;22.70;21.30;;;;;;;-141.02;100.00;92465.09;5137129;27;20228;-73
2022/05/30 01:00:47;;;;;;;21.90;20.50;;;;;;;-141.02;100.00;92531.31;5136466;27;20196;-73
2022/05/30 01:08:42;;;;;;;22.58;21.17;;;;;;;-141.02;100.00;92418.34;5136161;27;20211;-73
2022/05/30 01:11:11;;;;;;;20.00;18.70;;;;;;;-141.02;100.00;92371.59;5136249;27;20201;-74
2022/05/30 01:13:40;;;;;;;22.55;21.05;;;;;;;-141.02;100.00;92379.38;5135922;27;20197;-74
2022/05/30 01:16:07;;;;;;;22.85;21.35;;;;;;;-141.02;100.00;92344.31;5136232;27;20256;-73
2022/05/30 01:18:39;;;;;;;22.85;21.35;;;;;;;-141.02;100.00;92301.47;5136063;27;20228;-74
2022/05/30 01:21:26;;;;;;;23.10;21.50;;;;;;;-141.02;100.00;92371.59;5135875;27;20193;-73
2022/05/30 01:24:14;;;;;;;21.73;20.23;;;;;;;-141.02;100.00;92394.97;5136097;27;20221;-73
2022/05/30 01:27:05;;;;;;;21.52;20.10;;;;;;;-141.02;100.00;92445.59;5135215;27;20199;-73
2022/05/30 01:29:38;;;;;;;21.60;20.20;;;;;;;-141.02;100.00;92433.94;5135960;27;20269;-74
2022/05/30 01:32:05;;;;;;;21.20;19.80;;;;;;;-141.02;100.00;92496.25;5135593;27;20198;-73
2022/05/30 01:34:33;;;;;;;20.98;19.58;;;;;;;-141.02;100.00;92437.81;5135517;27;20278;-73
2022/05/30 01:37:00;;;;;;;21.08;19.67;;;;;;;-141.02;100.00;92480.69;5135722;27;20318;-73
2022/05/30 01:39:27;;;;;;;21.02;19.63;;;;;;;-141.02;100.00;92492.38;5135741;27;20196;-73
2022/05/30 01:41:54;;;;;;;20.55;19.23;;;;;;;-141.02;100.00;92453.41;5135332;27;20192;-73
2022/05/30 01:44:21;;;;;;;21.33;19.92;;;;;;;-141.02;100.00;92410.56;5135389;27;20730;-73
2022/05/30 01:46:50;;;;;;;21.52;20.13;;;;;;;-141.02;100.00;92394.97;5135562;27;20558;-73
2022/05/30 01:49:17;;;;;;;21.60;20.20;;;;;;;-141.02;100.00;92402.75;5135575;27;20654;-74
2022/05/30 01:51:45;;;;;;;21.65;20.15;;;;;;;-141.02;100.00;92428.09;5135198;27;20676;-73
2022/05/30 01:54:12;;;;;;;21.40;20.00;;;;;;;-141.02;100.00;92451.47;5135087;27;20613;-74
2022/05/30 01:56:39;;;;;;;21.80;20.33;;;;;;;-141.02;100.00;92453.41;5135383;27;20215;-73
2022/05/30 01:59:06;;;;;;;20.13;18.83;;;;;;;-141.02;100.00;92451.47;5135221;27;20246;-73
2022/05/30 02:01:33;;;;;;;22.85;21.35;;;;;;;-141.02;100.00;92451.47;5135317;27;20246;-73
2022/05/30 02:04:02;;;;;;;22.10;20.60;;;;;;;-141.02;100.00;92461.19;5134919;27;20637;-73
2022/05/30 02:06:31;;;;;;;22.38;20.88;;;;;;;-141.02;100.00;92476.78;5134700;27;20236;-73
2022/05/30 02:08:58;;;;;;;23.00;21.50;;;;;;;-141.02;100.00;92340.44;5134857;27;20238;-73
2022/05/30 02:11:25;;;;;;;22.52;21.02;;;;;;;-141.02;100.00;92437.81;5135122;27;20228;-73
2022/05/30 02:13:52;;;;;;;22.25;20.75;;;;;;;-141.02;100.00;92457.31;5134763;27;20287;-73
2022/05/30 02:19:06;;;;;;;22.50;21.00;;;;;;;-141.02;100.00;92455.34;5135000;27;20324;-73
2022/05/30 02:21:34;;;;;;;21.95;20.55;;;;;;;-141.02;100.00;92402.75;5134601;27;20206;-73
2022/05/30 02:24:02;;;;;;;21.48;20.08;;;;;;;-141.02;100.00;92511.84;5134560;27;20203;-73
2022/05/30 02:26:29;;;;;;;21.40;20.08;;;;;;;-141.02;100.00;92469.00;5134468;27;20239;-73
2022/05/30 02:28:56;;;;;;;20.90;19.60;;;;;;;-141.02;100.00;92511.84;5134475;27;20202;-73
2022/05/30 02:31:23;;;;;;;20.50;19.20;;;;;;;-141.02;100.00;92469.00;5134670;27;20193;-74
2022/05/30 02:36:41;;;;;;;20.98;19.58;;;;;;;-141.02;100.00;92509.91;5134941;27;20191;-73
2022/05/30 02:39:09;;;;;;;20.40;19.00;;;;;;;-141.02;100.00;92476.78;5134270;27;20217;-72
2022/05/30 02:41:36;;;;;;;20.63;19.33;;;;;;;-141.02;100.00;92517.69;5134142;27;20196;-73
2022/05/30 02:44:04;;;;;;;19.60;18.30;;;;;;;-141.02;100.00;92465.09;5134162;27;20669;-72
2022/05/30 02:46:32;;;;;;;21.40;20.00;;;;;;;-141.02;100.00;92455.34;5134154;27;20228;-72
2022/05/30 02:48:59;;;;;;;22.35;20.85;;;;;;;-141.02;100.00;92472.88;5133999;27;20192;-72
2022/05/30 02:51:26;;;;;;;22.60;21.10;;;;;;;-141.02;100.00;92441.72;5134020;27;20275;-73
2022/05/30 02:53:55;;;;;;;21.70;20.30;;;;;;;-141.02;100.00;92418.34;5134198;27;20218;-72
2022/05/30 02:56:22;;;;;;;22.13;20.63;;;;;;;-141.02;100.00;92320.94;5134194;27;20209;-73
2022/05/30 02:58:49;;;;;;;22.38;20.88;;;;;;;-141.02;100.00;92324.84;5134081;27;20220;-73
2022/05/30 03:01:17;;;;;;;21.70;20.20;;;;;;;-141.02;100.00;92359.91;5134099;27;20196;-72
2022/05/30 03:03:44;;;;;;;22.00;20.55;;;;;;;-141.02;100.00;92420.28;5134084;27;20367;-72
2022/05/30 03:06:12;;;;;;;21.45;20.05;;;;;;;-141.02;100.00;92231.34;5133624;27;20315;-72
2022/05/30 03:08:39;;;;;;;21.77;20.38;;;;;;;-141.02;100.00;92449.50;5134092;27;20202;-72
2022/05/30 03:11:07;;;;;;;20.35;19.05;;;;;;;-141.02;100.00;92445.59;5133629;27;20192;-72
2022/05/30 03:13:34;;;;;;;20.50;19.20;;;;;;;-141.02;100.00;92488.47;5133661;27;20231;-72
2022/05/30 03:16:02;;;;;;;20.02;18.73;;;;;;;-141.02;100.00;92480.69;5133563;27;20196;-72
2022/05/30 03:18:29;;;;;;;20.83;19.52;;;;;;;-141.02;100.00;92529.38;5133437;27;20236;-72
2022/05/30 03:20:56;;;;;;;20.27;19.08;;;;;;;-141.02;100.00;92529.38;5133839;27;20633;-72
2022/05/30 03:23:23;;;;;;;20.25;19.05;;;;;;;-141.02;100.00;92539.09;5133407;27;20195;-73
2022/05/30 03:25:50;;;;;;;20.27;19.08;;;;;;;-141.02;100.00;92566.38;5133693;27;20219;-72
2022/05/30 03:28:18;;;;;;;20.17;18.98;;;;;;;-141.02;100.00;92581.97;5133708;27;20193;-72
2022/05/30 03:30:45;;;;;;;18.50;17.40;;;;;;;-141.02;100.00;92597.53;5133293;27;20680;-72
2022/05/30 03:33:12;;;;;;;19.88;18.77;;;;;;;-141.02;100.00;92581.97;5133304;27;20676;-72
2022/05/30 03:35:40;;;;;;;19.77;18.60;;;;;;;-141.02;100.00;92550.78;5133535;27;20631;-72
2022/05/30 03:38:08;;;;;;;19.75;18.65;;;;;;;-141.02;100.00;92507.94;5133465;27;20311;-72
2022/05/30 03:40:37;;;;;;;20.20;19.00;;;;;;;-141.02;100.00;92453.41;5133514;27;20637;-73
2022/05/30 03:43:08;;;;;;;19.13;18.02;;;;;;;-141.02;100.00;92410.56;5133179;27;20206;-73
2022/05/30 03:45:40;;;;;;;19.50;18.40;;;;;;;-141.02;100.00;92437.81;5133437;27;20235;-73
2022/05/30 03:48:09;;;;;;;19.13;18.02;;;;;;;-141.02;100.00;92262.53;5133120;27;20275;-73
2022/05/30 03:50:39;;;;;;;18.63;17.52;;;;;;;-141.02;100.00;92075.53;5133205;27;20250;-72
2022/05/30 03:53:06;;;;;;;16.50;15.50;;;;;;;-141.02;100.00;91966.47;5133321;27;20198;-72
2022/05/30 03:55:37;;;;;;;16.38;15.48;;;;;;;-141.02;100.00;91763.94;5133274;27;20219;-73
2022/05/30 03:58:04;;;;;;;16.40;15.50;;;;;;;-141.02;100.00;91604.25;5132923;28;20298;-72
2022/05/30 04:00:32;;;;;;;16.55;15.65;;;;;;;-141.02;100.00;91355.00;5132988;27;20196;-73
2022/05/30 04:03:02;;;;;;;18.13;17.13;;;;;;;-141.02;100.00;90986.97;5133212;28;20203;-73
2022/05/30 04:05:30;;;;;;;18.08;17.08;;;;;;;-141.02;100.00;90626.81;5132730;28;20228;-73
2022/05/30 04:07:57;;;;;;;18.83;17.75;;;;;;;-141.02;100.00;90155.69;5132916;27;20235;-73
2022/05/30 04:10:25;;;;;;;19.08;17.98;;;;;;;-141.02;100.00;89622.38;5133122;28;20203;-73
2022/05/30 04:13:00;;;;;;;18.85;17.75;;;;;;;-141.02;100.00;89237.03;5132838;28;20204;-73
2022/05/30 04:15:27;;;;;;;18.42;17.38;;;;;;;-141.02;100.00;89022.97;5133212;28;20206;-73
2022/05/30 04:17:54;;;;;;;18.50;17.40;;;;;;;-141.02;100.00;88952.94;5133306;28;20323;-73
2022/05/30 04:20:23;;;;;;;22.88;21.58;;;;;;;-141.02;100.00;88744.72;5133099;27;20192;-73
2022/05/30 04:22:50;;;;;;;23.40;22.10;;;;;;;-141.02;100.00;88575.44;5132769;27;20245;-73
2022/05/30 04:25:17;;;;;;;23.20;21.80;;;;;;;-141.02;100.00;88369.22;5132990;28;20223;-73
2022/05/30 04:27:45;;;;;;;21.73;20.42;;;;;;;-141.02;100.00;88310.84;5132732;28;20232;-72
2022/05/30 04:30:12;;;;;;;22.25;20.95;;;;;;;-141.02;100.00;88277.78;5132694;28;20667;-73
2022/05/30 04:32:39;;;;;;;22.83;21.42;;;;;;;-141.02;100.00;88163.00;5132673;28;20280;-73
2022/05/30 04:35:07;;;;;;;22.98;21.42;;;;;;;-141.02;100.00;87974.28;5132944;28;20288;-73
2022/05/30 04:37:36;;;;;;;22.08;20.58;;;;;;;-141.02;100.00;87853.69;5132490;28;20287;-73
2022/05/30 04:40:04;;;;;;;22.52;21.02;;;;;;;-141.02;100.00;87707.78;5132946;28;20192;-73
2022/05/30 04:42:31;;;;;;;20.98;19.48;;;;;;;-141.02;100.00;87622.22;5132523;28;20700;-73
2022/05/30 04:44:58;;;;;;;17.00;16.00;;;;;;;-141.02;100.00;87454.94;5132882;28;20192;-73
2022/05/30 04:47:25;;;;;;;18.42;17.02;;;;;;;-141.02;100.00;87400.47;5132487;28;20195;-73
2022/05/30 04:49:52;;;;;;;16.83;15.73;;;;;;;-141.02;100.00;87260.44;5132769;28;20288;-73
2022/05/30 04:52:19;;;;;;;16.65;15.65;;;;;;;-141.02;100.00;87130.13;5132472;28;20284;-73
2022/05/30 04:54:48;;;;;;;16.70;15.70;;;;;;;-141.02;100.00;86894.81;5132441;28;20283;-73
2022/05/30 04:57:15;;;;;;;15.70;14.80;;;;;;;-141.02;100.00;86698.38;5132436;28;20195;-73
2022/05/30 04:59:43;;;;;;;13.30;12.80;;;;;;;-141.02;100.00;86540.88;5133225;28;20260;-72
2022/05/30 05:02:12;;;;;;;10.32;10.02;;;;;;;-141.02;100.00;86575.88;5133472;27;20185;-73
2022/05/30 05:04:41;;;;;;;11.10;10.70;;;;;;;-141.02;100.00;86498.09;5136278;27;20661;-73
2022/05/30 05:07:09;;;;;;;11.65;11.25;;;;;;;-141.02;100.00;86649.78;5136398;27;20188;-73
2022/05/30 05:09:40;;;;;;;10.88;10.57;;;;;;;-141.02;100.00;86797.56;5136046;27;20201;-73
2022/05/30 05:12:10;;;;;;;9.80;9.50;;;;;;;-141.02;100.00;86993.97;5136149;27;20192;-73
2022/05/30 05:14:37;;;;;;;9.40;9.10;;;;;;;-141.02;100.00;87089.28;5135923;27;20635;-72
2022/05/30 05:17:06;;;;;;;9.52;9.23;;;;;;;-141.02;100.00;87198.19;5135898;27;20284;-72
2022/05/30 05:19:33;;;;;;;9.77;9.48;;;;;;;-141.02;100.00;87172.91;5135739;27;20228;-71
2022/05/30 05:22:00;;;;;;;9.80;9.50;;;;;;;-141.02;100.00;87176.81;5136156;27;20592;-72
2022/05/30 05:24:28;;;;;;;10.40;10.10;;;;;;;-141.02;100.00;87174.84;5135695;27;20192;-72
2022/05/30 05:26:55;;;;;;;11.02;10.63;;;;;;;-141.02;100.00;87104.84;5135724;27;20235;-73
2022/05/30 05:29:24;;;;;;;10.25;9.95;;;;;;;-141.02;100.00;87124.28;5135880;27;20275;-73
2022/05/30 05:31:51;;;;;;;11.10;10.70;;;;;;;-141.02;100.00;87097.06;5136451;27;20199;-73
2022/05/30 05:34:18;;;;;;;9.93;9.63;;;;;;;-141.02;100.00;87151.50;5135866;27;20235;-74
2022/05/30 05:36:48;;;;;;;9.68;9.38;;;;;;;-141.02;100.00;87159.28;5136596;27;20257;-75
2022/05/30 05:39:16;;;;;;;8.82;8.52;;;;;;;-141.02;100.00;87264.31;5135718;27;20228;-75
2022/05/30 05:41:45;;;;;;;8.90;8.60;;;;;;;-141.02;100.00;87248.75;5135650;27;20279;-74
2022/05/30 05:44:14;;;;;;;9.45;9.15;;;;;;;-141.02;100.00;87274.03;5135340;27;20200;-74
2022/05/30 05:46:42;;;;;;;9.70;9.40;;;;;;;-141.02;100.00;87240.97;5135563;27;20196;-74
2022/05/30 05:49:10;;;;;;;9.57;9.27;;;;;;;-141.02;100.00;87311.00;5135556;27;20243;-74
2022/05/30 05:51:38;;;;;;;9.30;9.00;;;;;;;-141.02;100.00;87205.97;5135271;27;20202;-74
2022/05/30 05:54:06;;;;;;;10.45;10.07;;;;;;;-141.02;100.00;87283.78;5135441;27;20197;-74
2022/05/30 05:56:34;;;;;;;10.00;9.70;;;;;;;-141.02;100.00;87274.03;5135135;27;20299;-74
2022/05/30 05:59:02;;;;;;;9.65;9.35;;;;;;;-141.02;100.00;87264.31;5135236;27;20257;-74
2022/05/30 06:01:31;;;;;;;11.90;11.50;;;;;;;-141.02;100.00;87120.41;5135335;27;20245;-73
2022/05/30 06:04:03;;;;;;;11.63;11.23;;;;;;;-141.02;100.00;87151.50;5135239;27;20199;-76
2022/05/30 06:06:30;;;;;;;11.30;10.90;;;;;;;-141.02;100.00;87198.19;5134791;27;20227;-76
2022/05/30 06:08:59;;;;;;;10.05;9.75;;;;;;;-141.02;100.00;87196.25;5134862;27;20280;-77
2022/05/30 06:11:26;;;;;;;10.40;10.10;;;;;;;-141.02;100.00;87198.19;5135038;27;20271;-76
2022/05/30 06:13:54;;;;;;;11.60;11.20;;;;;;;-141.02;100.00;87050.38;5134819;27;20192;-76
2022/05/30 06:16:25;;;;;;;11.00;10.60;;;;;;;-141.02;100.00;87178.75;5135001;27;20201;-75
2022/05/30 06:18:53;;;;;;;10.43;10.13;;;;;;;-141.02;100.00;87172.91;5134926;27;20216;-76
2022/05/30 06:21:24;;;;;;;12.30;11.90;;;;;;;-141.02;100.00;86976.47;5134643;27;20228;-76
2022/05/30 06:23:51;;;;;;;9.90;9.60;;;;;;;-141.02;100.00;87139.84;5135775;27;20210;-77
2022/05/30 06:26:18;;;;;;;11.18;10.88;;;;;;;-141.02;100.00;87102.91;5134783;27;20291;-81
2022/05/30 06:28:45;;;;;;;11.60;11.10;;;;;;;-141.02;100.00;87050.38;5134810;27;20192;-78
2022/05/30 06:31:15;;;;;;;12.38;11.88;;;;;;;-141.02;100.00;87027.03;5134766;27;20189;-77
2022/05/30 06:33:42;;;;;;;11.50;11.10;;;;;;;-141.02;100.00;87042.59;5134348;27;20197;-78
2022/05/30 06:36:11;;;;;;;11.20;10.80;;;;;;;-141.02;100.00;86933.69;5134643;27;20202;-79
2022/05/30 06:38:39;;;;;;;21.10;19.70;;;;;;;-141.02;100.00;86853.97;5134151;27;20763;-77
2022/05/30 06:41:12;;;;;;;12.13;11.73;;;;;;;-141.02;100.00;86747.00;5134551;27;20203;-80
2022/05/30 06:43:39;;;;;;;13.00;12.50;;;;;;;-141.02;100.00;86642.00;5134126;27;20241;-82
2022/05/30 06:46:07;;;;;;;14.02;13.43;;;;;;;-141.02;100.00;86527.28;5134434;27;20196;-81
2022/05/30 06:48:34;;;;;;;14.00;13.40;;;;;;;-141.02;100.00;86445.59;5134062;27;20291;-80
2022/05/30 06:51:04;;;;;;;14.45;13.77;;;;;;;-141.02;100.00;86430.03;5134078;27;20654;-81
2022/05/30 06:53:31;;;;;;;13.80;13.20;;;;;;;-141.02;100.00;86470.88;5134069;27;20191;-82
2022/05/30 06:56:00;;;;;;;14.40;13.80;;;;;;;-141.02;100.00;86478.66;5133907;27;20189;-82
2022/05/30 06:58:28;;;;;;;12.60;12.10;;;;;;;-141.02;100.00;86515.59;5133880;27;20618;-86
2022/05/30 07:01:00;;;;;;;13.23;12.73;;;;;;;-141.02;100.00;86544.78;5134628;27;20283;-80
2022/05/30 07:03:28;;;;;;;12.48;11.98;;;;;;;-141.02;100.00;86451.44;5133981;27;20669;-81
2022/05/30 07:05:55;;;;;;;14.20;13.60;;;;;;;-141.02;100.00;86362.00;5133651;27;20319;-84
2022/05/30 07:08:23;;;;;;;12.75;12.25;;;;;;;-141.02;100.00;86439.75;5133768;27;20192;-83
2022/05/30 07:10:51;;;;;;;14.85;14.15;;;;;;;-141.02;100.00;86311.44;5133696;27;20231;-82
2022/05/30 07:13:20;;;;;;;15.23;14.52;;;;;;;-141.02;100.00;86311.44;5133638;27;20188;-84
2022/05/30 07:15:50;;;;;;;15.38;14.68;;;;;;;-141.02;100.00;86097.56;5133966;27;20199;-86
2022/05/30 07:18:19;;;;;;;14.38;13.77;;;;;;;-141.02;100.00;86218.09;5133555;27;20233;-82
2022/05/30 07:20:47;;;;;;;14.82;14.13;;;;;;;-141.02;100.00;86144.22;5133398;27;20224;-82
2022/05/30 07:23:14;;;;;;;15.02;14.32;;;;;;;-141.02;100.00;86070.34;5133452;27;20290;-81
2022/05/30 07:25:42;;;;;;;15.80;15.00;;;;;;;-141.02;100.00;85961.47;5133321;27;20270;-80
2022/05/30 07:28:12;;;;;;;17.42;16.52;;;;;;;-141.02;100.00;85856.47;5133739;27;20558;-83
2022/05/30 07:30:41;;;;;;;19.23;18.13;;;;;;;-141.02;100.00;85821.47;5133735;27;20195;-83
2022/05/30 07:33:09;;;;;;;15.65;14.85;;;;;;;-141.02;100.00;85837.03;5133400;27;20231;-84
2022/05/30 07:35:37;;;;;;;16.63;15.73;;;;;;;-141.02;100.00;85790.38;5133262;27;20288;-81
2022/05/30 07:38:04;;;;;;;16.20;15.32;;;;;;;-141.02;100.00;85778.72;5133181;27;20578;-81
2022/05/30 07:40:32;;;;;;;15.80;15.00;;;;;;;-141.02;100.00;85794.25;5133142;27;20747;-82
2022/05/30 07:42:59;;;;;;;17.35;16.45;;;;;;;-141.02;100.00;85681.50;5133192;27;20200;-83
2022/05/30 07:45:26;;;;;;;18.27;17.38;;;;;;;-141.02;100.00;85667.91;5133164;27;20232;-78
2022/05/30 07:47:54;;;;;;;18.10;17.13;;;;;;;-141.02;100.00;85601.81;5133364;27;20201;-82
2022/05/30 07:50:21;;;;;;;16.45;15.55;;;;;;;-141.02;100.00;85595.97;5133371;27;20188;-83
2022/05/30 07:52:48;;;;;;;17.40;16.50;;;;;;;-141.02;100.00;85582.34;5133326;27;20219;-84
2022/05/30 07:55:16;;;;;;;18.63;17.63;;;;;;;-141.02;100.00;85347.16;5133012;27;20196;-82
2022/05/30 07:57:54;;;;;;;19.20;18.20;;;;;;;-141.02;100.00;85471.56;5133050;27;20202;-81
2022/05/30 08:00:23;;;;;;;19.40;18.40;;;;;;;-141.02;100.00;84970.06;5132993;28;20212;-87
2022/05/30 08:02:50;;;;;;;18.50;17.60;;;;;;;-141.02;100.00;85440.44;5132915;28;20749;-84
2022/05/30 08:05:20;;;;;;;18.83;17.83;;;;;;;-141.02;100.00;85382.13;5132962;27;20280;-81
2022/05/30 08:07:47;;;;;;;18.83;17.83;;;;;;;-141.02;100.00;85362.69;5133235;27;20257;-82
2022/05/30 08:10:17;;;;;;;18.00;17.10;;;;;;;-141.02;100.00;85378.25;5132793;28;20279;-80
2022/05/30 08:12:44;;;;;;;19.25;18.25;;;;;;;-141.02;99.88;84993.38;5132851;28;20672;-81
2022/05/30 08:15:12;;;;;;;20.15;19.05;;;;;;;-141.02;100.00;85189.69;5132800;28;20242;-81
2022/05/30 08:17:40;;;;;;;20.73;19.52;;;;;;;-141.02;100.00;85226.63;5132850;28;20279;-78
2022/05/30 08:20:09;;;;;;;19.77;18.67;;;;;;;-141.02;97.56;84826.22;5133062;27;20280;-77
2022/05/30 08:22:38;;;;;;;20.02;18.92;;;;;;;-141.02;98.75;85078.91;5133133;28;20197;-79
2022/05/30 08:25:09;;;;;;;20.25;19.15;;;;;;;-141.02;100.00;85168.31;5133060;28;20235;-78
2022/05/30 08:27:36;;;;;;;19.45;18.35;;;;;;;-141.02;100.00;85098.34;5133291;28;20199;-80
2022/05/30 08:30:04;;;;;;;18.70;17.70;;;;;;;-141.02;100.00;84647.44;5132939;28;20265;-78
2022/05/30 08:32:35;;;;;;;19.73;18.63;;;;;;;-141.02;93.72;84938.97;5132970;27;20273;-77
2022/05/30 08:35:05;;;;;;;20.35;19.25;;;;;;;-141.02;87.89;84857.34;5132657;27;20193;-78
2022/05/30 08:37:32;;;;;;;20.60;19.50;;;;;;;-141.02;89.85;84604.69;5134382;27;20279;-78
2022/05/30 08:42:49;;;;;;;20.48;19.38;;;;;;;-141.02;92.00;84857.34;5137034;27;20223;-82
2022/05/30 08:45:18;;;;;;;20.00;18.90;;;;;;;-141.02;94.55;84822.34;5136877;27;20275;-81
2022/05/30 08:47:52;;;;;;;20.83;19.73;;;;;;;-141.02;91.42;84814.56;5136483;27;20636;-78
2022/05/30 08:50:36;;;;;;;20.83;19.73;;;;;;;-141.02;89.14;84783.47;5137434;27;20220;-79
2022/05/30 08:53:27;;;;;;;20.70;19.60;;;;;;;-141.02;89.99;84771.81;5136481;27;20689;-81
2022/05/30 08:56:03;;;;;;;20.73;19.63;;;;;;;-141.02;94.26;84913.69;5136432;27;20184;-81
2022/05/30 08:58:42;;;;;;;22.38;20.95;;;;;;;-141.02;99.64;84869.00;5136769;27;20188;-78
2022/05/30 09:01:14;;;;;;;18.35;17.45;;;;;;;-141.02;100.00;84857.34;5136473;27;20220;-77
2022/05/30 09:03:44;;;;;;;20.27;19.17;;;;;;;-141.02;92.11;84655.19;5136584;27;20242;-79
2022/05/30 09:06:17;;;;;;;20.90;19.70;;;;;;;-141.02;84.80;84618.28;5135966;27;20706;-78
2022/05/30 09:08:49;;;;;;;21.10;19.90;;;;;;;-141.02;82.93;84651.31;5136482;27;20188;-78
2022/05/30 09:11:26;;;;;;;21.60;20.20;;;;;;;-141.02;90.11;84699.91;5136391;27;20184;-82
2022/05/30 09:13:56;;;;;;;19.27;18.27;;;;;;;-141.02;97.68;84643.53;5136366;27;20623;-78
2022/05/30 09:16:34;;;;;;;19.30;18.30;;;;;;;-141.02;93.20;84690.19;5135942;27;20690;-80
2022/05/30 09:19:05;;;;;;;20.52;19.42;;;;;;;-141.02;88.14;84581.34;5136226;27;20281;-78
2022/05/30 09:21:33;;;;;;;21.08;19.88;;;;;;;-141.02;86.36;84573.59;5135999;27;20287;-80
2022/05/30 09:24:02;;;;;;;20.83;19.63;;;;;;;-141.02;86.23;84589.13;5136148;27;20196;-77
2022/05/30 09:26:35;;;;;;;20.20;19.10;;;;;;;-141.02;92.41;84589.13;5135806;27;20283;-78
2022/05/30 09:29:05;;;;;;;20.77;19.58;;;;;;;-141.02;88.51;84526.94;5136150;27;20185;-77
2022/05/30 09:31:47;;;;;;;20.58;19.38;;;;;;;-141.02;83.93;84468.63;5135968;27;20684;-77
2022/05/30 09:34:34;;;;;;;21.10;19.90;;;;;;;-141.02;73.67;84348.16;5135752;27;20191;-81
2022/05/30 09:37:02;;;;;;;21.17;19.98;;;;;;;-141.02;75.18;84359.81;5135654;27;20238;-78
2022/05/30 09:39:29;;;;;;;20.75;19.55;;;;;;;-141.02;77.10;84295.69;5135805;27;20292;-76
2022/05/30 09:42:01;;;;;;;20.45;19.25;;;;;;;-141.02;77.59;84317.06;5135452;27;20655;-81
2022/05/30 09:44:40;;;;;;;20.70;19.50;;;;;;;-141.02;73.93;84223.78;5135523;27;20203;-77
2022/05/30 09:47:14;;;;;;;20.58;19.38;;;;;;;-141.02;74.66;84243.22;5135957;27;20545;-77
2022/05/30 09:49:43;;;;;;;20.05;18.85;;;;;;;-141.02;74.12;84219.91;5134906;27;20196;-81
2022/05/30 09:52:26;;;;;;;20.25;19.05;;;;;;;-141.02;72.54;84134.41;5135618;27;20637;-78
2022/05/30 09:54:54;;;;;;;20.23;19.02;;;;;;;-141.02;67.16;83922.59;5135270;27;20242;-78
2022/05/30 09:57:27;;;;;;;20.50;19.30;;;;;;;-141.02;66.94;84021.69;5135585;27;20245;-76
2022/05/30 09:59:57;;;;;;;19.27;18.17;;;;;;;-141.02;76.96;84149.94;5135005;27;20244;-75
2022/05/30 10:02:27;;;;;;;19.05;17.95;;;;;;;-141.02;79.19;84161.59;5135433;27;20263;-76
2022/05/30 10:05:00;;;;;;;19.73;18.58;;;;;;;-141.02;66.96;83877.91;5134946;27;20598;-75
2022/05/30 10:07:28;;;;;;;19.45;18.25;;;;;;;-141.02;68.88;84015.88;5135367;27;20220;-76
2022/05/30 10:09:58;;;;;;;19.00;17.90;;;;;;;-141.02;71.86;84068.31;5134819;27;20196;-75
2022/05/30 10:12:33;;;;;;;19.20;18.10;;;;;;;-141.02;69.90;84052.78;5135098;27;20249;-76
2022/05/30 10:14:59;;;;;;;19.42;18.25;;;;;;;-141.02;67.23;83920.66;5134820;27;20219;-77
2022/05/30 10:17:33;;;;;;;19.50;18.30;;;;;;;-141.02;61.08;83811.84;5134724;27;20658;-75
2022/05/30 10:20:02;;;;;;;19.42;18.23;;;;;;;-141.02;64.83;83864.31;5134682;27;20204;-76
2022/05/30 10:28:40;;;;;;;18.95;17.75;;;;;;;-141.02;65.45;83691.38;5134945;27;20179;-75
2022/05/30 10:31:18;;;;;;;19.05;17.85;;;;;;;-141.02;62.47;83493.22;5134836;27;20267;-77
2022/05/30 10:34:32;;;;;;;19.00;17.90;;;;;;;-141.02;67.78;83761.31;5134509;27;20185;-77
2022/05/30 10:37:15;;;;;;;19.00;17.90;;;;;;;-141.02;60.51;83602.00;5048190;28;20281;-75
2022/05/30 10:40:01;;;;;;;18.98;17.88;;;;;;;-141.02;60.94;83477.66;5126346;27;20228;-76
2022/05/30 10:42:35;;;;;;;18.42;17.33;;;;;;;-141.02;61.86;83602.00;5134234;27;20224;-75
2022/05/30 10:45:10;;;;;;;18.65;17.55;;;;;;;-141.02;64.39;83508.75;5134289;27;20276;-73
2022/05/30 10:47:39;;;;;;;18.52;17.42;;;;;;;-141.02;58.85;83450.47;5134194;27;20280;-75
2022/05/30 10:50:13;;;;;;;18.75;17.65;;;;;;;-141.02;59.95;83510.69;5134137;27;20287;-75
2022/05/30 10:52:48;;;;;;;18.58;17.48;;;;;;;-141.02;64.78;83524.28;5134385;27;20187;-74
2022/05/30 10:55:20;;;;;;;17.85;16.85;;;;;;;-141.02;59.92;83473.78;5134360;27;20241;-75
2022/05/30 10:57:51;;;;;;;18.35;17.35;;;;;;;-141.02;58.50;83376.66;5134291;27;20220;-74
2022/05/30 11:00:22;;;;;;;18.75;17.75;;;;;;;-141.02;56.29;83337.78;5133117;27;20685;-75
2022/05/30 11:02:59;;;;;;;18.60;17.60;;;;;;;-141.02;57.31;83322.25;5133820;27;20202;-75
2022/05/30 11:05:30;;;;;;;18.58;17.58;;;;;;;-141.02;58.94;83368.88;5133831;27;20748;-74
2022/05/30 11:08:06;;;;;;;18.63;17.63;;;;;;;-141.02;58.33;83310.59;5133790;27;20563;-78
2022/05/30 11:10:56;;;;;;;18.85;17.85;;;;;;;-141.02;58.53;83279.50;5134034;27;20180;-75
2022/05/30 11:13:37;;;;;;;19.02;18.02;;;;;;;-141.02;55.91;83102.72;5133980;27;20199;-73
2022/05/30 11:16:14;;;;;;;18.80;17.80;;;;;;;-141.02;56.59;83201.81;5133950;27;20223;-74
2022/05/30 11:18:49;;;;;;;19.10;18.10;;;;;;;-141.02;55.40;82984.22;5133953;27;20216;-74
2022/05/30 11:21:35;;;;;;;18.88;17.88;;;;;;;-141.02;55.85;83162.94;5133805;27;20277;-77
2022/05/30 11:24:04;;;;;;;19.27;18.27;;;;;;;-141.02;55.82;83046.41;5133529;27;20193;-75
2022/05/30 11:26:57;;;;;;;19.30;18.30;;;;;;;-141.02;59.07;83213.47;5133477;27;20228;-75
2022/05/30 11:29:43;;;;;;;19.60;18.60;;;;;;;-141.02;53.78;83081.34;5133417;27;20184;-77